Airfield :
LOGIN :

Register | Disclaimer

   EN    FR    IT 

 










Legend :    VFR   Marginal VFR   IFR   Intensive IFR   Very Intensive IFR
Visi :
Ceiling :
>= 8 km
>= 3000ft
5 to 8 km
1000 to 3000 ft
1500m to 5 km
500 to 1000 ft
800 to 1500m
200 to 500 ft
< 800m
< 200 ft
Symbols :   Thunderstorms  Fog  Heavy snow  Heavy precipitations  Wind > 20 kt
SIGMETs :     Misc.  Thunderstorms  Icing  Turbulence  Mountain Waves  Volcanic Ashes







- Airport Elevation : 17 ft
- IATA code : GRQ


EHGG - Groningen Eelde

CURRENT METAR :
  • 171455Z AUTO 31015KT 270V350 9999 NSC 14/06 Q1020 RERA TEMPO 7000 -SHRA FEW030TCU

EXPIRED METARs :
  • 171425Z AUTO 31018G29KT 270V350 9999 SCT033 SCT038 15/07 Q1020 TEMPO 7000 -SHRA FEW030TCU
  • 171355Z AUTO 31016G28KT 260V350 9999 FEW030 SCT034 14/07 Q1020 REDZ TEMPO 7000 -SHRA FEW030TCU
  • 171325Z AUTO 31015KT 260V340 9999 SCT043 17/06 Q1019 TEMPO 7000 -SHRA FEW030TCU
  • 171255Z AUTO 31018G28KT 260V340 9999 FEW044 17/04 Q1020 TEMPO 7000 -SHRA FEW030TCU
  • 171225Z AUTO 30018G29KT 270V350 9999 -RA SCT033 BKN038 BKN048 15/07 Q1019 TEMPO 7000 -SHRA FEW030CB

TAF TAF EHGG
Valid from the 17 at 12:00 until the 18 at 18:00 UTC


171050Z 1712/1818 31015KT 9999 SCT035
PROB40
TEMPO 1712/1718 31017G27KT 6000 SHRA SCT035TCU
BECMG 1717/1720 31012KT
BECMG 1723/1802 28008KT
BECMG 1807/1809 32011KT
No reported NOTAMs for that airfield.



MET'MAP, your aeronautical weather chart ! - Copyright ORBIFLY December 2007 - Disclaimer

ORBIFLY MET'MAP TEAM :

Programming & Development : Alexandra Zaïnal
Concept & Development : Baudouin d'Aumeries
Co-Development & Prog : Marc-Olivier Méhu
Technical & hardware support : Manuel Goepfert

Contact : metmap@orbifly.com




SOURCES & CREDITS :

   NOAA